Tampa, Florida
Traffic Map
Current Weather Conditions
Tampa, Florida
Broken Clouds Light Rain
Broken Clouds
61°
Feels Like: 61°
Wind Chill: 61° Ceiling: 5000
Heat Index: 61° Visibility: 8mi
Dew Point: 58° Wind: 8mph
Humidity: 90% Direction: 320° (NW)
Pressure: 29.98in Gusts: 0mph
Raw Report DataKTPA 100653Z 32007KT 8SM -RA SCT016 SCT029 BKN050 16/14 A2998 RMK AO2 RAB47 SLP151 P0000 T01610144
Traffic Incident Summary
Active as of:
Severity:
Category:
InformationThere was an issue retrieving the traffic information for this location. Please try a different location or try again shortly.
Advertisements